Saint Bonnet de Bellac- Haute Vienne - France
Donnes mto: mercredi, 29/08/2012
Date Horaire Temp. E. Hum. E. P.atmo. Pluie Vent Direction Direction Ensoleilleme Solaire P. de rose Temp au vent Rafales
29/08/2012 00:00 17,6 C 76 % 1018,5 hPa 0,0 mm 0,0 km/h (0 Bft) E-NE 67 0 min 0 W/m 13,3 C 17,6 C 0,0 km/h (0 Bft)
29/08/2012 00:10 17,5 C 77 % 1018,6 hPa 0,0 mm 0,0 km/h (0 Bft) E-NE 67 0 min 0 W/m 13,4 C 17,5 C 0,0 km/h (0 Bft)
29/08/2012 00:20 17,3 C 77 % 1018,5 hPa 0,0 mm 0,0 km/h (0 Bft) E-NE 67 0 min 0 W/m 13,2 C 17,3 C 0,0 km/h (0 Bft)
29/08/2012 00:30 17,2 C 78 % 1018,7 hPa 0,0 mm 0,0 km/h (0 Bft) S-SO 202 0 min 0 W/m 13,3 C 17,2 C 0,0 km/h (0 Bft)
29/08/2012 00:40 16,8 C 78 % 1018,8 hPa 0,0 mm 0,0 km/h (0 Bft) SO 225 0 min 0 W/m 12,9 C 16,8 C 0,0 km/h (0 Bft)
29/08/2012 00:50 16,5 C 78 % 1018,8 hPa 0,0 mm 0,0 km/h (0 Bft) SO 225 0 min 0 W/m 12,6 C 16,5 C 0,0 km/h (0 Bft)
29/08/2012 01:00 16,4 C 79 % 1018,9 hPa 0,0 mm 0,0 km/h (0 Bft) S 180 0 min 0 W/m 12,7 C 16,4 C 0,0 km/h (0 Bft)
29/08/2012 01:10 16,2 C 79 % 1019,0 hPa 0,0 mm 0,0 km/h (0 Bft) S 180 0 min 0 W/m 12,6 C 16,2 C 0,0 km/h (0 Bft)
29/08/2012 01:20 16,1 C 79 % 1019,1 hPa 0,0 mm 0,0 km/h (0 Bft) S 180 0 min 0 W/m 12,5 C 16,1 C 0,0 km/h (0 Bft)
29/08/2012 01:30 15,9 C 79 % 1019,1 hPa 0,0 mm 0,0 km/h (0 Bft) S 180 0 min 0 W/m 12,3 C 15,9 C 0,0 km/h (0 Bft)
29/08/2012 01:40 15,8 C 80 % 1019,1 hPa 0,0 mm 0,0 km/h (0 Bft) S 180 0 min 0 W/m 12,4 C 15,8 C 0,0 km/h (0 Bft)
29/08/2012 01:50 15,7 C 79 % 1019,0 hPa 0,0 mm 0,0 km/h (0 Bft) S 180 0 min 0 W/m 12,1 C 15,7 C 0,0 km/h (0 Bft)
29/08/2012 02:00 15,6 C 80 % 1019,0 hPa 0,0 mm 0,0 km/h (0 Bft) E-SE 112 0 min 0 W/m 12,2 C 15,6 C 0,0 km/h (0 Bft)
29/08/2012 02:10 15,7 C 80 % 1018,9 hPa 0,0 mm 0,0 km/h (0 Bft) E-SE 112 0 min 0 W/m 12,3 C 15,7 C 0,0 km/h (0 Bft)
29/08/2012 02:20 15,8 C 81 % 1018,9 hPa 0,0 mm 0,0 km/h (0 Bft) SE 135 0 min 0 W/m 12,5 C 15,8 C 0,0 km/h (0 Bft)
29/08/2012 02:30 15,9 C 81 % 1018,8 hPa 0,0 mm 0,0 km/h (0 Bft) SE 135 0 min 0 W/m 12,6 C 15,9 C 0,0 km/h (0 Bft)
29/08/2012 02:40 15,8 C 81 % 1018,7 hPa 0,0 mm 0,0 km/h (0 Bft) SE 135 0 min 0 W/m 12,5 C 15,8 C 0,0 km/h (0 Bft)
29/08/2012 02:50 15,6 C 81 % 1018,8 hPa 0,0 mm 0,0 km/h (0 Bft) O 270 0 min 0 W/m 12,3 C 15,6 C 0,0 km/h (0 Bft)
29/08/2012 03:02 15,4 C 81 % 1018,6 hPa 0,0 mm 0,0 km/h (0 Bft) O 270 0 min 0 W/m 12,2 C 15,4 C 0,0 km/h (0 Bft)
29/08/2012 03:10 15,3 C 81 % 1018,4 hPa 0,0 mm 0,0 km/h (0 Bft) O-NO 292 0 min 0 W/m 12,1 C 15,3 C 0,0 km/h (0 Bft)
29/08/2012 03:20 15,4 C 82 % 1018,4 hPa 0,0 mm 0,0 km/h (0 Bft) E-SE 112 0 min 0 W/m 12,3 C 15,4 C 3,2 km/h (1 Bft)
29/08/2012 03:30 15,3 C 82 % 1018,3 hPa 0,0 mm 0,0 km/h (0 Bft) E-SE 112 0 min 0 W/m 12,2 C 15,3 C 0,0 km/h (0 Bft)
29/08/2012 03:40 15,3 C 83 % 1018,3 hPa 0,0 mm 0,0 km/h (0 Bft) E-SE 112 0 min 0 W/m 12,4 C 15,3 C 0,0 km/h (0 Bft)
29/08/2012 03:50 15,3 C 83 % 1018,2 hPa 0,0 mm 1,1 km/h (1 Bft) E 90 0 min 0 W/m 12,4 C 15,3 C 4,3 km/h (1 Bft)
29/08/2012 04:00 15,3 C 84 % 1018,1 hPa 0,0 mm 1,8 km/h (1 Bft) E-SE 112 0 min 0 W/m 12,6 C 15,3 C 4,0 km/h (1 Bft)
29/08/2012 04:10 15,3 C 85 % 1018,2 hPa 0,0 mm 0,0 km/h (0 Bft) E-NE 67 0 min 0 W/m 12,8 C 15,3 C 0,0 km/h (0 Bft)
29/08/2012 04:20 15,3 C 85 % 1018,2 hPa 0,0 mm 0,0 km/h (0 Bft) S-SE 157 0 min 0 W/m 12,8 C 15,3 C 0,0 km/h (0 Bft)
29/08/2012 04:30 14,9 C 84 % 1018,3 hPa 0,0 mm 0,0 km/h (0 Bft) S-SE 157 0 min 0 W/m 12,2 C 14,9 C 0,0 km/h (0 Bft)
29/08/2012 04:40 14,6 C 84 % 1018,3 hPa 0,0 mm 0,0 km/h (0 Bft) S-SE 157 0 min 0 W/m 11,9 C 14,6 C 0,0 km/h (0 Bft)
29/08/2012 04:50 14,5 C 85 % 1018,2 hPa 0,0 mm 2,9 km/h (1 Bft) N 360 0 min 0 W/m 12,0 C 14,5 C 4,0 km/h (1 Bft)
29/08/2012 05:00 14,4 C 85 % 1018,0 hPa 0,0 mm 0,0 km/h (0 Bft) NE 45 0 min 0 W/m 11,9 C 14,4 C 0,0 km/h (0 Bft)
29/08/2012 05:10 14,2 C 85 % 1018,1 hPa 0,0 mm 0,0 km/h (0 Bft) N-NE 22 0 min 0 W/m 11,7 C 14,2 C 0,0 km/h (0 Bft)
29/08/2012 05:20 14,0 C 85 % 1017,9 hPa 0,0 mm 0,0 km/h (0 Bft) N-NE 22 0 min 0 W/m 11,5 C 14,0 C 0,0 km/h (0 Bft)
29/08/2012 05:30 13,8 C 85 % 1017,9 hPa 0,0 mm 0,0 km/h (0 Bft) SE 135 0 min 0 W/m 11,3 C 13,8 C 0,0 km/h (0 Bft)
29/08/2012 05:40 13,7 C 86 % 1017,9 hPa 0,0 mm 0,0 km/h (0 Bft) SE 135 0 min 0 W/m 11,4 C 13,7 C 0,0 km/h (0 Bft)
29/08/2012 05:50 13,7 C 86 % 1017,9 hPa 0,0 mm 0,0 km/h (0 Bft) SE 135 0 min 0 W/m 11,4 C 13,7 C 0,0 km/h (0 Bft)
29/08/2012 06:00 13,6 C 86 % 1017,8 hPa 0,0 mm 0,0 km/h (0 Bft) SE 135 0 min 0 W/m 11,3 C 13,6 C 0,0 km/h (0 Bft)
29/08/2012 06:10 13,6 C 86 % 1018,0 hPa 0,0 mm 0,0 km/h (0 Bft) SE 135 0 min 0 W/m 11,3 C 13,6 C 0,0 km/h (0 Bft)
29/08/2012 06:20 13,5 C 87 % 1017,9 hPa 0,0 mm 0,0 km/h (0 Bft) SE 135 0 min 0 W/m 11,4 C 13,5 C 0,0 km/h (0 Bft)
29/08/2012 06:30 13,5 C 87 % 1018,0 hPa 0,0 mm 0,0 km/h (0 Bft) SE 135 0 min 0 W/m 11,4 C 13,5 C 0,0 km/h (0 Bft)
29/08/2012 06:40 13,4 C 87 % 1018,1 hPa 0,0 mm 0,0 km/h (0 Bft) SE 135 0 min 0 W/m 11,3 C 13,4 C 0,0 km/h (0 Bft)
29/08/2012 06:50 13,3 C 87 % 1018,1 hPa 0,0 mm 0,0 km/h (0 Bft) E-SE 112 0 min 0 W/m 11,2 C 13,3 C 0,0 km/h (0 Bft)
29/08/2012 07:00 13,4 C 87 % 1018,2 hPa 0,0 mm 0,0 km/h (0 Bft) E-SE 112 0 min 0 W/m 11,3 C 13,4 C 0,0 km/h (0 Bft)
29/08/2012 07:10 13,4 C 87 % 1018,2 hPa 0,0 mm 0,0 km/h (0 Bft) E-SE 112 0 min 0 W/m 11,3 C 13,4 C 0,0 km/h (0 Bft)
29/08/2012 07:20 13,3 C 88 % 1018,2 hPa 0,0 mm 0,0 km/h (0 Bft) E-SE 112 0 min 0 W/m 11,4 C 13,3 C 0,0 km/h (0 Bft)
29/08/2012 07:30 13,2 C 88 % 1018,3 hPa 0,0 mm 0,0 km/h (0 Bft) E-SE 112 0 min 0 W/m 11,3 C 13,2 C 0,0 km/h (0 Bft)
29/08/2012 07:40 13,1 C 88 % 1018,4 hPa 0,0 mm 0,0 km/h (0 Bft) S-SE 157 0 min 0 W/m 11,2 C 13,1 C 0,0 km/h (0 Bft)
29/08/2012 07:50 13,1 C 88 % 1018,4 hPa 0,0 mm 0,0 km/h (0 Bft) S-SE 157 0 min 0 W/m 11,2 C 13,1 C 0,0 km/h (0 Bft)
29/08/2012 08:00 13,4 C 88 % 1018,4 hPa 0,0 mm 0,0 km/h (0 Bft) E-SE 112 0 min 0 W/m 11,5 C 13,4 C 0,0 km/h (0 Bft)
29/08/2012 08:10 13,6 C 89 % 1018,3 hPa 0,0 mm 0,0 km/h (0 Bft) E-SE 112 0 min 0 W/m 11,8 C 13,6 C 0,0 km/h (0 Bft)
29/08/2012 08:20 13,9 C 89 % 1018,5 hPa 0,0 mm 0,0 km/h (0 Bft) S-SO 202 0 min 0 W/m 12,1 C 13,9 C 0,0 km/h (0 Bft)
29/08/2012 08:30 14,0 C 89 % 1018,4 hPa 0,0 mm 0,0 km/h (0 Bft) S-SO 202 0 min 0 W/m 12,2 C 14,0 C 0,0 km/h (0 Bft)
29/08/2012 08:40 14,3 C 89 % 1018,5 hPa 0,0 mm 0,0 km/h (0 Bft) S-SO 202 0 min 0 W/m 12,5 C 14,3 C 0,0 km/h (0 Bft)
29/08/2012 08:50 14,8 C 90 % 1018,4 hPa 0,0 mm 0,0 km/h (0 Bft) S-SO 202 0 min 0 W/m 13,2 C 14,8 C 0,0 km/h (0 Bft)
29/08/2012 09:00 15,4 C 90 % 1018,3 hPa 0,0 mm 0,0 km/h (0 Bft) SE 135 0 min 0 W/m 13,8 C 15,4 C 0,0 km/h (0 Bft)
29/08/2012 09:10 15,8 C 89 % 1018,0 hPa 0,0 mm 0,0 km/h (0 Bft) E-SE 112 0 min 0 W/m 14,0 C 15,8 C 0,0 km/h (0 Bft)
29/08/2012 09:20 16,3 C 87 % 1018,2 hPa 0,0 mm 0,0 km/h (0 Bft) E-SE 112 0 min 0 W/m 14,1 C 16,3 C 0,0 km/h (0 Bft)
29/08/2012 09:30 17,1 C 83 % 1018,1 hPa 0,0 mm 0,0 km/h (0 Bft) E-SE 112 0 min 0 W/m 14,2 C 17,1 C 0,0 km/h (0 Bft)
29/08/2012 09:40 17,8 C 80 % 1018,2 hPa 0,0 mm 0,0 km/h (0 Bft) E-SE 112 0 min 0 W/m 14,3 C 17,8 C 0,0 km/h (0 Bft)
29/08/2012 09:50 18,2 C 79 % 1018,1 hPa 0,0 mm 2,9 km/h (1 Bft) E-SE 112 0 min 0 W/m 14,5 C 18,2 C 4,3 km/h (1 Bft)
29/08/2012 10:00 18,4 C 77 % 1018,1 hPa 0,0 mm 0,4 km/h (0 Bft) E-SE 112 0 min 0 W/m 14,3 C 18,4 C 3,2 km/h (1 Bft)
29/08/2012 10:10 18,9 C 77 % 1018,2 hPa 0,0 mm 0,0 km/h (0 Bft) E-SE 112 0 min 0 W/m 14,8 C 18,9 C 0,0 km/h (0 Bft)
29/08/2012 10:20 19,3 C 74 % 1018,3 hPa 0,0 mm 0,4 km/h (0 Bft) E-SE 112 0 min 0 W/m 14,5 C 19,3 C 3,2 km/h (1 Bft)
29/08/2012 10:30 19,8 C 72 % 1018,3 hPa 0,0 mm 0,7 km/h (0 Bft) E 90 0 min 0 W/m 14,6 C 19,8 C 3,2 km/h (1 Bft)
29/08/2012 10:40 20,3 C 70 % 1018,4 hPa 0,0 mm 0,0 km/h (0 Bft) SE 135 0 min 0 W/m 14,6 C 20,3 C 0,0 km/h (0 Bft)
29/08/2012 10:50 20,6 C 68 % 1018,3 hPa 0,0 mm 0,0 km/h (0 Bft) SE 135 0 min 0 W/m 14,5 C 20,6 C 0,0 km/h (0 Bft)
29/08/2012 11:00 21,1 C 67 % 1018,4 hPa 0,0 mm 0,0 km/h (0 Bft) S-SE 157 0 min 0 W/m 14,7 C 21,1 C 0,0 km/h (0 Bft)
29/08/2012 11:10 21,6 C 66 % 1018,3 hPa 0,0 mm 0,0 km/h (0 Bft) SO 225 0 min 0 W/m 15,0 C 21,6 C 0,0 km/h (0 Bft)
29/08/2012 11:20 22,3 C 65 % 1018,2 hPa 0,0 mm 0,7 km/h (0 Bft) NO 315 0 min 0 W/m 15,4 C 22,3 C 3,6 km/h (1 Bft)
29/08/2012 11:30 23,3 C 63 % 1018,0 hPa 0,0 mm 0,0 km/h (0 Bft) N-NO 337 0 min 0 W/m 15,9 C 23,3 C 0,0 km/h (0 Bft)
29/08/2012 11:40 24,1 C 60 % 1018,2 hPa 0,0 mm 0,4 km/h (0 Bft) NO 315 0 min 0 W/m 15,8 C 24,1 C 0,4 km/h (0 Bft)
29/08/2012 11:50 24,6 C 58 % 1018,1 hPa 0,0 mm 1,8 km/h (1 Bft) O-NO 292 0 min 0 W/m 15,8 C 24,6 C 2,9 km/h (1 Bft)
29/08/2012 12:00 25,1 C 58 % 1018,3 hPa 0,0 mm 0,0 km/h (0 Bft) NO 315 0 min 0 W/m 16,2 C 25,1 C 3,2 km/h (1 Bft)
29/08/2012 12:10 25,3 C 57 % 1018,3 hPa 0,0 mm 2,5 km/h (1 Bft) O-NO 292 0 min 0 W/m 16,2 C 25,3 C 6,1 km/h (2 Bft)
29/08/2012 12:20 25,1 C 57 % 1018,5 hPa 0,0 mm 0,0 km/h (0 Bft) NE 45 0 min 0 W/m 16,0 C 25,1 C 2,9 km/h (1 Bft)
29/08/2012 12:30 24,9 C 56 % 1018,5 hPa 0,0 mm 1,4 km/h (1 Bft) NO 315 0 min 0 W/m 15,5 C 24,9 C 6,1 km/h (2 Bft)
29/08/2012 12:40 24,9 C 54 % 1018,4 hPa 0,0 mm 2,9 km/h (1 Bft) O 270 0 min 0 W/m 14,9 C 24,9 C 4,3 km/h (1 Bft)
29/08/2012 12:50 24,8 C 53 % 1018,4 hPa 0,0 mm 0,0 km/h (0 Bft) O-SO 247 0 min 0 W/m 14,6 C 24,8 C 3,2 km/h (1 Bft)
29/08/2012 13:00 24,8 C 54 % 1018,4 hPa 0,0 mm 0,4 km/h (0 Bft) O 270 0 min 0 W/m 14,8 C 24,8 C 4,0 km/h (1 Bft)
29/08/2012 13:10 24,8 C 54 % 1018,3 hPa 0,0 mm 2,2 km/h (1 Bft) NO 315 0 min 0 W/m 14,8 C 24,8 C 4,3 km/h (1 Bft)
29/08/2012 13:20 24,8 C 53 % 1018,2 hPa 0,0 mm 3,2 km/h (1 Bft) O 270 0 min 0 W/m 14,6 C 24,8 C 8,6 km/h (2 Bft)
29/08/2012 13:30 24,8 C 53 % 1018,3 hPa 0,0 mm 0,0 km/h (0 Bft) O-SO 247 0 min 0 W/m 14,6 C 24,8 C 0,0 km/h (0 Bft)
29/08/2012 13:40 24,9 C 52 % 1018,0 hPa 0,0 mm 2,2 km/h (1 Bft) S-SO 202 0 min 0 W/m 14,4 C 24,9 C 4,3 km/h (1 Bft)
29/08/2012 13:50 25,1 C 52 % 1018,1 hPa 0,0 mm 0,4 km/h (0 Bft) O-SO 247 0 min 0 W/m 14,5 C 25,1 C 3,6 km/h (1 Bft)
29/08/2012 14:00 25,2 C 52 % 1017,9 hPa 0,0 mm 1,1 km/h (1 Bft) SO 225 0 min 0 W/m 14,6 C 25,2 C 1,1 km/h (1 Bft)
29/08/2012 14:10 25,2 C 52 % 1017,9 hPa 0,0 mm 0,0 km/h (0 Bft) O 270 0 min 0 W/m 14,6 C 25,2 C 0,0 km/h (0 Bft)
29/08/2012 14:20 25,1 C 52 % 1018,0 hPa 0,0 mm 1,4 km/h (1 Bft) O-SO 247 0 min 0 W/m 14,5 C 25,1 C 4,3 km/h (1 Bft)
29/08/2012 14:30 24,9 C 53 % 1018,2 hPa 0,0 mm 0,0 km/h (0 Bft) N-NO 337 0 min 0 W/m 14,6 C 24,9 C 0,0 km/h (0 Bft)
29/08/2012 14:40 24,6 C 52 % 1018,1 hPa 0,0 mm 0,0 km/h (0 Bft) O-SO 247 0 min 0 W/m 14,1 C 24,6 C 0,0 km/h (0 Bft)
29/08/2012 14:50 24,2 C 54 % 1018,0 hPa 0,0 mm 0,4 km/h (0 Bft) O-SO 247 0 min 0 W/m 14,3 C 24,2 C 4,0 km/h (1 Bft)
29/08/2012 15:00 23,7 C 55 % 1018,2 hPa 0,0 mm 1,1 km/h (1 Bft) O-SO 247 0 min 0 W/m 14,1 C 23,7 C 3,2 km/h (1 Bft)
29/08/2012 15:10 23,4 C 56 % 1018,1 hPa 0,0 mm 2,5 km/h (1 Bft) SO 225 0 min 0 W/m 14,1 C 23,4 C 4,3 km/h (1 Bft)
29/08/2012 15:20 23,3 C 57 % 1018,2 hPa 0,0 mm 2,9 km/h (1 Bft) SO 225 0 min 0 W/m 14,3 C 23,3 C 3,2 km/h (1 Bft)
29/08/2012 15:30 23,3 C 58 % 1018,0 hPa 0,0 mm 0,0 km/h (0 Bft) O-SO 247 0 min 0 W/m 14,6 C 23,3 C 0,0 km/h (0 Bft)
29/08/2012 15:40 23,4 C 57 % 1018,0 hPa 0,0 mm 0,4 km/h (0 Bft) O-SO 247 0 min 0 W/m 14,4 C 23,4 C 4,0 km/h (1 Bft)
29/08/2012 15:50 23,2 C 58 % 1018,3 hPa 0,0 mm 3,2 km/h (1 Bft) S 180 0 min 0 W/m 14,5 C 23,2 C 4,3 km/h (1 Bft)
29/08/2012 16:00 22,6 C 63 % 1018,1 hPa 0,0 mm 0,0 km/h (0 Bft) SO 225 0 min 0 W/m 15,2 C 22,6 C 0,0 km/h (0 Bft)
29/08/2012 16:10 22,1 C 65 % 1018,3 hPa 0,0 mm 2,9 km/h (1 Bft) E-SE 112 0 min 0 W/m 15,2 C 22,1 C 3,6 km/h (1 Bft)
29/08/2012 16:20 21,5 C 71 % 1018,1 hPa 0,0 mm 0,4 km/h (0 Bft) S-SO 202 0 min 0 W/m 16,0 C 21,5 C 0,4 km/h (0 Bft)
29/08/2012 16:30 21,3 C 72 % 1018,0 hPa 0,0 mm 0,4 km/h (0 Bft) N 360 0 min 0 W/m 16,0 C 21,3 C 0,4 km/h (0 Bft)
29/08/2012 16:40 20,9 C 73 % 1018,1 hPa 0,0 mm 0,0 km/h (0 Bft) S-SO 202 0 min 0 W/m 15,9 C 20,9 C 0,0 km/h (0 Bft)
29/08/2012 16:50 20,9 C 75 % 1017,9 hPa 0,0 mm 2,5 km/h (1 Bft) S 180 0 min 0 W/m 16,3 C 20,9 C 4,3 km/h (1 Bft)
29/08/2012 17:00 21,1 C 75 % 1017,9 hPa 0,0 mm 4,0 km/h (1 Bft) S-SO 202 0 min 0 W/m 16,5 C 21,1 C 7,9 km/h (2 Bft)
29/08/2012 17:10 21,3 C 74 % 1018,0 hPa 0,0 mm 0,7 km/h (0 Bft) S-SO 202 0 min 0 W/m 16,5 C 21,3 C 3,6 km/h (1 Bft)
29/08/2012 17:20 21,2 C 73 % 1017,9 hPa 0,0 mm 3,6 km/h (1 Bft) S 180 0 min 0 W/m 16,2 C 21,2 C 6,8 km/h (2 Bft)
29/08/2012 17:30 21,2 C 73 % 1017,9 hPa 0,0 mm 2,5 km/h (1 Bft) SO 225 0 min 0 W/m 16,2 C 21,2 C 6,5 km/h (2 Bft)
29/08/2012 17:40 21,2 C 75 % 1017,9 hPa 0,1 mm 3,6 km/h (1 Bft) S-SE 157 0 min 0 W/m 16,6 C 21,2 C 3,6 km/h (1 Bft)
29/08/2012 17:50 21,2 C 76 % 1017,6 hPa 0,0 mm 2,2 km/h (1 Bft) S-SO 202 0 min 0 W/m 16,8 C 21,2 C 4,0 km/h (1 Bft)
29/08/2012 18:00 21,5 C 75 % 1017,5 hPa 0,0 mm 0,0 km/h (0 Bft) S 180 0 min 0 W/m 16,9 C 21,5 C 0,0 km/h (0 Bft)
29/08/2012 18:10 21,9 C 73 % 1017,4 hPa 0,0 mm 3,2 km/h (1 Bft) S-SO 202 0 min 0 W/m 16,8 C 21,9 C 4,3 km/h (1 Bft)
29/08/2012 18:20 22,5 C 71 % 1017,3 hPa 0,0 mm 0,0 km/h (0 Bft) SO 225 0 min 0 W/m 17,0 C 22,5 C 3,6 km/h (1 Bft)
29/08/2012 18:30 22,4 C 70 % 1017,6 hPa 0,0 mm 5,0 km/h (1 Bft) S-SO 202 0 min 0 W/m 16,7 C 22,4 C 6,5 km/h (2 Bft)
29/08/2012 18:40 22,2 C 71 % 1017,5 hPa 0,0 mm 2,2 km/h (1 Bft) S-SO 202 0 min 0 W/m 16,7 C 22,2 C 4,3 km/h (1 Bft)
29/08/2012 18:50 22,1 C 71 % 1017,4 hPa 0,0 mm 1,8 km/h (1 Bft) S-SO 202 0 min 0 W/m 16,6 C 22,1 C 3,6 km/h (1 Bft)
29/08/2012 19:00 22,1 C 70 % 1017,4 hPa 0,0 mm 3,2 km/h (1 Bft) S-SO 202 0 min 0 W/m 16,4 C 22,1 C 6,5 km/h (2 Bft)
29/08/2012 19:10 22,1 C 71 % 1017,5 hPa 0,0 mm 4,0 km/h (1 Bft) S-SO 202 0 min 0 W/m 16,6 C 22,1 C 6,5 km/h (2 Bft)
29/08/2012 19:20 22,1 C 71 % 1017,6 hPa 0,0 mm 3,6 km/h (1 Bft) SO 225 0 min 0 W/m 16,6 C 22,1 C 3,6 km/h (1 Bft)
29/08/2012 19:30 21,8 C 72 % 1017,6 hPa 0,0 mm 4,7 km/h (1 Bft) S-SO 202 0 min 0 W/m 16,5 C 21,8 C 8,3 km/h (2 Bft)
29/08/2012 19:40 21,3 C 73 % 1017,8 hPa 0,0 mm 1,4 km/h (1 Bft) SO 225 0 min 0 W/m 16,3 C 21,3 C 4,0 km/h (1 Bft)
29/08/2012 19:50 21,1 C 73 % 1017,9 hPa 0,0 mm 1,4 km/h (1 Bft) SO 225 0 min 0 W/m 16,1 C 21,1 C 2,9 km/h (1 Bft)
29/08/2012 20:00 20,8 C 73 % 1018,0 hPa 0,0 mm 0,7 km/h (0 Bft) SO 225 0 min 0 W/m 15,8 C 20,8 C 4,0 km/h (1 Bft)
29/08/2012 20:10 20,6 C 73 % 1018,2 hPa 0,0 mm 0,0 km/h (0 Bft) O-SO 247 0 min 0 W/m 15,6 C 20,6 C 0,0 km/h (0 Bft)
29/08/2012 20:20 20,5 C 74 % 1018,3 hPa 0,0 mm 2,2 km/h (1 Bft) S-SO 202 0 min 0 W/m 15,7 C 20,5 C 3,6 km/h (1 Bft)
29/08/2012 20:30 20,3 C 74 % 1018,2 hPa 0,0 mm 3,6 km/h (1 Bft) O-SO 247 0 min 0 W/m 15,5 C 20,3 C 3,6 km/h (1 Bft)
29/08/2012 20:40 20,3 C 74 % 1018,2 hPa 0,0 mm 0,0 km/h (0 Bft) O-SO 247 0 min 0 W/m 15,5 C 20,3 C 0,0 km/h (0 Bft)
29/08/2012 20:50 20,0 C 74 % 1018,5 hPa 0,0 mm 0,0 km/h (0 Bft) O-SO 247 0 min 0 W/m 15,2 C 20,0 C 0,0 km/h (0 Bft)
29/08/2012 21:00 19,6 C 74 % 1018,5 hPa 0,0 mm 0,0 km/h (0 Bft) SO 225 0 min 0 W/m 14,8 C 19,6 C 0,0 km/h (0 Bft)
29/08/2012 21:10 19,4 C 72 % 1018,7 hPa 0,0 mm 0,0 km/h (0 Bft) SO 225 0 min 0 W/m 14,2 C 19,4 C 0,0 km/h (0 Bft)
29/08/2012 21:20 19,4 C 72 % 1018,8 hPa 0,0 mm 0,7 km/h (0 Bft) O 270 0 min 0 W/m 14,2 C 19,4 C 0,7 km/h (0 Bft)
29/08/2012 21:30 19,4 C 71 % 1019,0 hPa 0,0 mm 3,2 km/h (1 Bft) O-SO 247 0 min 0 W/m 14,0 C 19,4 C 6,5 km/h (2 Bft)
29/08/2012 21:40 19,5 C 71 % 1019,1 hPa 0,0 mm 4,0 km/h (1 Bft) O 270 0 min 0 W/m 14,1 C 19,5 C 8,3 km/h (2 Bft)
29/08/2012 21:50 19,4 C 71 % 1019,1 hPa 0,0 mm 0,0 km/h (0 Bft) O 270 0 min 0 W/m 14,0 C 19,4 C 0,0 km/h (0 Bft)
29/08/2012 22:00 19,4 C 71 % 1019,2 hPa 0,0 mm 1,8 km/h (1 Bft) O 270 0 min 0 W/m 14,0 C 19,4 C 6,1 km/h (2 Bft)
29/08/2012 22:10 19,1 C 71 % 1019,3 hPa 0,0 mm 1,8 km/h (1 Bft) S 180 0 min 0 W/m 13,7 C 19,1 C 3,6 km/h (1 Bft)
29/08/2012 22:20 18,8 C 72 % 1019,3 hPa 0,0 mm 1,4 km/h (1 Bft) SO 225 0 min 0 W/m 13,6 C 18,8 C 1,4 km/h (1 Bft)
29/08/2012 22:30 18,4 C 72 % 1019,4 hPa 0,0 mm 0,0 km/h (0 Bft) SO 225 0 min 0 W/m 13,3 C 18,4 C 0,0 km/h (0 Bft)
29/08/2012 22:40 18,2 C 73 % 1019,3 hPa 0,0 mm 0,0 km/h (0 Bft) O-SO 247 0 min 0 W/m 13,3 C 18,2 C 0,0 km/h (0 Bft)
29/08/2012 22:50 17,8 C 73 % 1019,2 hPa 0,0 mm 0,0 km/h (0 Bft) O-SO 247 0 min 0 W/m 12,9 C 17,8 C 0,0 km/h (0 Bft)
29/08/2012 23:00 17,4 C 74 % 1019,4 hPa 0,0 mm 0,0 km/h (0 Bft) O-SO 247 0 min 0 W/m 12,7 C 17,4 C 0,0 km/h (0 Bft)
29/08/2012 23:10 17,1 C 74 % 1019,3 hPa 0,0 mm 0,4 km/h (0 Bft) O 270 0 min 0 W/m 12,4 C 17,1 C 4,3 km/h (1 Bft)
29/08/2012 23:20 16,8 C 74 % 1019,4 hPa 0,0 mm 0,0 km/h (0 Bft) SO 225 0 min 0 W/m 12,1 C 16,8 C 0,0 km/h (0 Bft)
29/08/2012 23:30 16,6 C 75 % 1019,5 hPa 0,0 mm 0,0 km/h (0 Bft) S-SO 202 0 min 0 W/m 12,1 C 16,6 C 0,0 km/h (0 Bft)
29/08/2012 23:40 16,4 C 75 % 1019,6 hPa 0,0 mm 0,0 km/h (0 Bft) O-NO 292 0 min 0 W/m 12,0 C 16,4 C 3,2 km/h (1 Bft)
29/08/2012 23:50 16,1 C 76 % 1019,6 hPa 0,0 mm 0,0 km/h (0 Bft) SO 225 0 min 0 W/m 11,9 C 16,1 C 0,0 km/h (0 Bft)
_ Min-Heure 07:50 14:40 18:20 - 23:50 - - - - 07:50 07:50 23:50
Minimum _ 13,1 C 52 % 1017,3 hPa - 0,0 km/h (0 Bft) - - - - 11,2 C 13,1 C 0,0 km/h (0 Bft)
_ Max-Heure 12:10 09:00 23:50 17:40 18:30 - - 23:50 23:50 18:20 12:10 13:20
Maximum _ 25,3 C 90 % 1019,6 hPa 0,1 mm 5,0 km/h
S-SO (1 Bft)
- - 0 min 0 W/m 17,0 C 25,3 C 8,6 km/h
O (2 Bft)
Moyenne _ 18,9 C 74 % 1018,3 hPa #0,1 mm 0,8 km/h (0 Bft) E-SE - #0 min. 0 W/m 13,9 C 18,9 C 1,8 km/h (1 Bft)
Saint Bonnet de Bellac- Haute Vienne - France